sensor_id;sensor_type;location;lat;lon;timestamp;P1;durP1;ratioP1;P2;durP2;ratioP2
71753;SDS011;59593;51.716;7.016;2022-10-31T00:02:12;18.00;;;12.60;;
71753;SDS011;59593;51.716;7.016;2022-10-31T00:04:38;18.60;;;12.85;;
71753;SDS011;59593;51.716;7.016;2022-10-31T00:07:04;20.60;;;13.75;;
71753;SDS011;59593;51.716;7.016;2022-10-31T00:09:29;22.85;;;14.50;;
71753;SDS011;59593;51.716;7.016;2022-10-31T00:11:55;20.33;;;12.90;;
71753;SDS011;59593;51.716;7.016;2022-10-31T00:14:20;18.05;;;12.82;;
71753;SDS011;59593;51.716;7.016;2022-10-31T00:16:46;18.90;;;12.00;;
71753;SDS011;59593;51.716;7.016;2022-10-31T00:19:11;19.77;;;12.88;;
71753;SDS011;59593;51.716;7.016;2022-10-31T00:21:37;17.17;;;11.73;;
71753;SDS011;59593;51.716;7.016;2022-10-31T00:24:02;19.20;;;12.77;;
71753;SDS011;59593;51.716;7.016;2022-10-31T00:26:29;17.52;;;11.35;;
71753;SDS011;59593;51.716;7.016;2022-10-31T00:28:56;20.33;;;12.98;;
71753;SDS011;59593;51.716;7.016;2022-10-31T00:31:22;19.83;;;12.60;;
71753;SDS011;59593;51.716;7.016;2022-10-31T00:33:48;20.42;;;13.48;;
71753;SDS011;59593;51.716;7.016;2022-10-31T00:36:15;21.15;;;13.98;;
71753;SDS011;59593;51.716;7.016;2022-10-31T00:38:42;23.63;;;13.52;;
71753;SDS011;59593;51.716;7.016;2022-10-31T00:41:09;16.73;;;12.60;;
71753;SDS011;59593;51.716;7.016;2022-10-31T00:43:36;21.60;;;12.95;;
71753;SDS011;59593;51.716;7.016;2022-10-31T00:46:02;19.08;;;13.40;;
71753;SDS011;59593;51.716;7.016;2022-10-31T00:48:27;21.10;;;12.70;;
71753;SDS011;59593;51.716;7.016;2022-10-31T00:50:53;17.90;;;12.18;;
71753;SDS011;59593;51.716;7.016;2022-10-31T00:53:19;19.55;;;12.55;;
71753;SDS011;59593;51.716;7.016;2022-10-31T00:55:44;18.65;;;11.98;;
71753;SDS011;59593;51.716;7.016;2022-10-31T00:58:10;16.77;;;12.95;;
71753;SDS011;59593;51.716;7.016;2022-10-31T01:00:36;17.33;;;11.48;;
71753;SDS011;59593;51.716;7.016;2022-10-31T01:03:01;19.75;;;12.40;;
71753;SDS011;59593;51.716;7.016;2022-10-31T01:05:27;16.85;;;12.45;;
71753;SDS011;59593;51.716;7.016;2022-10-31T01:07:53;17.67;;;11.98;;
71753;SDS011;59593;51.716;7.016;2022-10-31T01:10:19;19.75;;;12.32;;
71753;SDS011;59593;51.716;7.016;2022-10-31T01:12:45;18.10;;;11.25;;
71753;SDS011;59593;51.716;7.016;2022-10-31T01:15:13;21.92;;;12.88;;
71753;SDS011;59593;51.716;7.016;2022-10-31T01:17:41;18.98;;;13.55;;
71753;SDS011;59593;51.716;7.016;2022-10-31T01:20:07;19.20;;;13.68;;
71753;SDS011;59593;51.716;7.016;2022-10-31T01:22:34;18.90;;;13.48;;
71753;SDS011;59593;51.716;7.016;2022-10-31T01:24:59;20.85;;;12.85;;
71753;SDS011;59593;51.716;7.016;2022-10-31T01:27:25;19.10;;;12.73;;
71753;SDS011;59593;51.716;7.016;2022-10-31T01:29:51;18.40;;;12.48;;
71753;SDS011;59593;51.716;7.016;2022-10-31T01:32:17;16.70;;;11.90;;
71753;SDS011;59593;51.716;7.016;2022-10-31T01:34:42;15.23;;;11.93;;
71753;SDS011;59593;51.716;7.016;2022-10-31T01:37:08;20.42;;;11.82;;
71753;SDS011;59593;51.716;7.016;2022-10-31T01:39:33;16.42;;;11.63;;
71753;SDS011;59593;51.716;7.016;2022-10-31T01:41:59;20.02;;;12.50;;
71753;SDS011;59593;51.716;7.016;2022-10-31T01:49:46;16.15;;;11.32;;
71753;SDS011;59593;51.716;7.016;2022-10-31T01:54:56;17.63;;;12.55;;
71753;SDS011;59593;51.716;7.016;2022-10-31T01:57:27;16.83;;;12.75;;
71753;SDS011;59593;51.716;7.016;2022-10-31T01:59:55;17.80;;;11.98;;
71753;SDS011;59593;51.716;7.016;2022-10-31T02:02:25;18.52;;;11.52;;
71753;SDS011;59593;51.716;7.016;2022-10-31T02:04:53;14.27;;;10.75;;
71753;SDS011;59593;51.716;7.016;2022-10-31T02:07:26;14.32;;;10.68;;
71753;SDS011;59593;51.716;7.016;2022-10-31T02:09:57;16.60;;;11.15;;
71753;SDS011;59593;51.716;7.016;2022-10-31T02:12:24;15.27;;;11.48;;
71753;SDS011;59593;51.716;7.016;2022-10-31T02:14:50;16.10;;;11.15;;
71753;SDS011;59593;51.716;7.016;2022-10-31T02:17:16;16.50;;;11.60;;
71753;SDS011;59593;51.716;7.016;2022-10-31T02:20:28;14.35;;;10.45;;
71753;SDS011;59593;51.716;7.016;2022-10-31T02:30:27;17.85;;;11.02;;
71753;SDS011;59593;51.716;7.016;2022-10-31T02:33:20;16.45;;;11.00;;
71753;SDS011;59593;51.716;7.016;2022-10-31T02:41:15;20.27;;;12.38;;
71753;SDS011;59593;51.716;7.016;2022-10-31T02:44:11;20.63;;;12.43;;
71753;SDS011;59593;51.716;7.016;2022-10-31T02:47:14;19.10;;;12.75;;
71753;SDS011;59593;51.716;7.016;2022-10-31T02:52:30;18.15;;;12.30;;
71753;SDS011;59593;51.716;7.016;2022-10-31T02:54:57;16.98;;;11.10;;
71753;SDS011;59593;51.716;7.016;2022-10-31T02:57:30;18.73;;;11.00;;
71753;SDS011;59593;51.716;7.016;2022-10-31T03:00:02;16.23;;;11.05;;
71753;SDS011;59593;51.716;7.016;2022-10-31T03:05:06;18.45;;;11.45;;
71753;SDS011;59593;51.716;7.016;2022-10-31T03:10:29;19.48;;;12.10;;
71753;SDS011;59593;51.716;7.016;2022-10-31T03:15:43;15.93;;;12.98;;
71753;SDS011;59593;51.716;7.016;2022-10-31T03:18:16;18.70;;;12.25;;
71753;SDS011;59593;51.716;7.016;2022-10-31T03:20:48;13.82;;;11.10;;
71753;SDS011;59593;51.716;7.016;2022-10-31T03:23:36;17.77;;;11.73;;
71753;SDS011;59593;51.716;7.016;2022-10-31T03:26:03;19.17;;;11.23;;
71753;SDS011;59593;51.716;7.016;2022-10-31T03:28:34;18.88;;;11.65;;
71753;SDS011;59593;51.716;7.016;2022-10-31T03:31:05;15.10;;;11.38;;
71753;SDS011;59593;51.716;7.016;2022-10-31T03:33:33;14.53;;;11.03;;
71753;SDS011;59593;51.716;7.016;2022-10-31T03:36:02;16.08;;;11.00;;
71753;SDS011;59593;51.716;7.016;2022-10-31T03:38:31;16.65;;;11.23;;
71753;SDS011;59593;51.716;7.016;2022-10-31T03:40:58;17.30;;;11.30;;
71753;SDS011;59593;51.716;7.016;2022-10-31T03:43:28;16.27;;;10.48;;
71753;SDS011;59593;51.716;7.016;2022-10-31T03:45:57;16.90;;;10.52;;
71753;SDS011;59593;51.716;7.016;2022-10-31T03:48:23;16.85;;;10.98;;
71753;SDS011;59593;51.716;7.016;2022-10-31T03:53:39;19.40;;;12.07;;
71753;SDS011;59593;51.716;7.016;2022-10-31T03:56:12;14.37;;;11.40;;
71753;SDS011;59593;51.716;7.016;2022-10-31T03:58:59;21.15;;;13.68;;
71753;SDS011;59593;51.716;7.016;2022-10-31T04:01:39;24.60;;;14.40;;
71753;SDS011;59593;51.716;7.016;2022-10-31T04:04:09;20.60;;;13.60;;
71753;SDS011;59593;51.716;7.016;2022-10-31T04:06:36;22.97;;;12.87;;
71753;SDS011;59593;51.716;7.016;2022-10-31T04:09:05;17.67;;;11.93;;
71753;SDS011;59593;51.716;7.016;2022-10-31T04:11:35;19.03;;;12.23;;
71753;SDS011;59593;51.716;7.016;2022-10-31T04:14:05;20.60;;;13.00;;
71753;SDS011;59593;51.716;7.016;2022-10-31T04:16:33;17.98;;;12.77;;
71753;SDS011;59593;51.716;7.016;2022-10-31T04:18:59;17.67;;;12.68;;
71753;SDS011;59593;51.716;7.016;2022-10-31T04:21:28;17.63;;;13.27;;
71753;SDS011;59593;51.716;7.016;2022-10-31T04:23:55;18.05;;;12.88;;
71753;SDS011;59593;51.716;7.016;2022-10-31T04:26:21;14.50;;;11.97;;
71753;SDS011;59593;51.716;7.016;2022-10-31T04:28:47;15.63;;;12.10;;
71753;SDS011;59593;51.716;7.016;2022-10-31T04:31:12;18.17;;;11.70;;
71753;SDS011;59593;51.716;7.016;2022-10-31T04:33:39;15.70;;;12.10;;
71753;SDS011;59593;51.716;7.016;2022-10-31T04:36:04;18.00;;;12.87;;
71753;SDS011;59593;51.716;7.016;2022-10-31T04:38:30;18.87;;;12.77;;
71753;SDS011;59593;51.716;7.016;2022-10-31T04:40:56;18.47;;;12.40;;
71753;SDS011;59593;51.716;7.016;2022-10-31T04:43:21;15.87;;;11.70;;
71753;SDS011;59593;51.716;7.016;2022-10-31T04:45:47;16.00;;;11.80;;
71753;SDS011;59593;51.716;7.016;2022-10-31T04:48:13;16.80;;;11.60;;
71753;SDS011;59593;51.716;7.016;2022-10-31T04:50:38;18.75;;;12.32;;
71753;SDS011;59593;51.716;7.016;2022-10-31T04:53:04;17.75;;;12.38;;
71753;SDS011;59593;51.716;7.016;2022-10-31T04:55:29;17.92;;;12.88;;
71753;SDS011;59593;51.716;7.016;2022-10-31T04:57:55;18.50;;;13.13;;
71753;SDS011;59593;51.716;7.016;2022-10-31T05:00:22;14.67;;;11.70;;
71753;SDS011;59593;51.716;7.016;2022-10-31T05:02:49;16.33;;;10.95;;
71753;SDS011;59593;51.716;7.016;2022-10-31T05:05:16;16.50;;;11.73;;
71753;SDS011;59593;51.716;7.016;2022-10-31T05:07:44;16.90;;;11.70;;
71753;SDS011;59593;51.716;7.016;2022-10-31T05:10:12;15.73;;;11.75;;
71753;SDS011;59593;51.716;7.016;2022-10-31T05:12:47;18.25;;;12.10;;
71753;SDS011;59593;51.716;7.016;2022-10-31T05:15:13;17.03;;;12.10;;
71753;SDS011;59593;51.716;7.016;2022-10-31T05:17:40;17.20;;;11.57;;
71753;SDS011;59593;51.716;7.016;2022-10-31T05:20:05;16.80;;;11.75;;
71753;SDS011;59593;51.716;7.016;2022-10-31T05:22:31;16.35;;;11.48;;
71753;SDS011;59593;51.716;7.016;2022-10-31T05:24:57;16.77;;;11.65;;
71753;SDS011;59593;51.716;7.016;2022-10-31T05:27:22;13.93;;;11.20;;
71753;SDS011;59593;51.716;7.016;2022-10-31T05:29:48;16.37;;;11.77;;
71753;SDS011;59593;51.716;7.016;2022-10-31T05:32:13;17.73;;;11.83;;
71753;SDS011;59593;51.716;7.016;2022-10-31T05:34:39;22.30;;;12.97;;
71753;SDS011;59593;51.716;7.016;2022-10-31T05:37:05;20.33;;;13.27;;
71753;SDS011;59593;51.716;7.016;2022-10-31T05:39:30;18.30;;;13.33;;
71753;SDS011;59593;51.716;7.016;2022-10-31T05:41:56;19.47;;;14.30;;
71753;SDS011;59593;51.716;7.016;2022-10-31T05:44:21;22.83;;;14.83;;
71753;SDS011;59593;51.716;7.016;2022-10-31T05:46:47;19.90;;;13.90;;
71753;SDS011;59593;51.716;7.016;2022-10-31T05:49:12;19.50;;;13.50;;
71753;SDS011;59593;51.716;7.016;2022-10-31T05:51:38;17.90;;;12.63;;
71753;SDS011;59593;51.716;7.016;2022-10-31T05:54:04;19.48;;;12.70;;
71753;SDS011;59593;51.716;7.016;2022-10-31T05:56:30;17.60;;;11.50;;
71753;SDS011;59593;51.716;7.016;2022-10-31T05:58:55;16.97;;;12.07;;
71753;SDS011;59593;51.716;7.016;2022-10-31T06:01:21;17.23;;;12.10;;
71753;SDS011;59593;51.716;7.016;2022-10-31T06:03:47;15.60;;;11.80;;
71753;SDS011;59593;51.716;7.016;2022-10-31T06:06:12;16.10;;;11.40;;
71753;SDS011;59593;51.716;7.016;2022-10-31T06:08:38;15.87;;;11.77;;
71753;SDS011;59593;51.716;7.016;2022-10-31T06:11:03;18.80;;;12.03;;
71753;SDS011;59593;51.716;7.016;2022-10-31T06:13:29;17.03;;;11.63;;
71753;SDS011;59593;51.716;7.016;2022-10-31T06:15:55;17.37;;;11.53;;
71753;SDS011;59593;51.716;7.016;2022-10-31T06:18:20;16.73;;;12.13;;
71753;SDS011;59593;51.716;7.016;2022-10-31T06:20:46;17.30;;;12.90;;
71753;SDS011;59593;51.716;7.016;2022-10-31T06:23:11;21.30;;;12.73;;
71753;SDS011;59593;51.716;7.016;2022-10-31T06:25:37;19.17;;;13.93;;
71753;SDS011;59593;51.716;7.016;2022-10-31T06:28:03;19.47;;;13.80;;
71753;SDS011;59593;51.716;7.016;2022-10-31T06:30:29;22.17;;;14.57;;
71753;SDS011;59593;51.716;7.016;2022-10-31T06:32:54;15.68;;;11.80;;
71753;SDS011;59593;51.716;7.016;2022-10-31T06:35:26;19.00;;;12.97;;
71753;SDS011;59593;51.716;7.016;2022-10-31T06:37:52;16.40;;;12.48;;
71753;SDS011;59593;51.716;7.016;2022-10-31T06:40:18;17.43;;;12.43;;
71753;SDS011;59593;51.716;7.016;2022-10-31T06:42:44;17.33;;;12.13;;
71753;SDS011;59593;51.716;7.016;2022-10-31T06:45:09;18.87;;;12.80;;
71753;SDS011;59593;51.716;7.016;2022-10-31T06:47:35;26.37;;;14.00;;
71753;SDS011;59593;51.716;7.016;2022-10-31T06:50:01;18.23;;;12.30;;
71753;SDS011;59593;51.716;7.016;2022-10-31T06:52:26;18.70;;;12.57;;
71753;SDS011;59593;51.716;7.016;2022-10-31T06:54:52;17.60;;;11.97;;
71753;SDS011;59593;51.716;7.016;2022-10-31T06:57:17;19.17;;;12.43;;
71753;SDS011;59593;51.716;7.016;2022-10-31T06:59:43;18.50;;;12.47;;
71753;SDS011;59593;51.716;7.016;2022-10-31T07:02:09;17.97;;;12.30;;
71753;SDS011;59593;51.716;7.016;2022-10-31T07:04:35;23.80;;;13.57;;
71753;SDS011;59593;51.716;7.016;2022-10-31T07:07:01;22.50;;;12.17;;
71753;SDS011;59593;51.716;7.016;2022-10-31T07:09:26;21.67;;;13.57;;
71753;SDS011;59593;51.716;7.016;2022-10-31T07:11:52;18.20;;;12.73;;
71753;SDS011;59593;51.716;7.016;2022-10-31T07:14:18;25.63;;;13.43;;
71753;SDS011;59593;51.716;7.016;2022-10-31T07:16:44;20.13;;;14.43;;
71753;SDS011;59593;51.716;7.016;2022-10-31T07:19:14;25.77;;;14.57;;
71753;SDS011;59593;51.716;7.016;2022-10-31T07:21:39;20.90;;;13.60;;
71753;SDS011;59593;51.716;7.016;2022-10-31T07:24:05;21.10;;;13.50;;
71753;SDS011;59593;51.716;7.016;2022-10-31T07:26:31;20.73;;;13.43;;
71753;SDS011;59593;51.716;7.016;2022-10-31T07:28:56;18.20;;;12.77;;
71753;SDS011;59593;51.716;7.016;2022-10-31T07:31:22;19.58;;;13.43;;
71753;SDS011;59593;51.716;7.016;2022-10-31T07:33:48;24.60;;;14.15;;
71753;SDS011;59593;51.716;7.016;2022-10-31T07:36:14;20.33;;;13.47;;
71753;SDS011;59593;51.716;7.016;2022-10-31T07:38:40;19.33;;;14.07;;
71753;SDS011;59593;51.716;7.016;2022-10-31T07:41:06;22.87;;;14.40;;
71753;SDS011;59593;51.716;7.016;2022-10-31T07:43:31;22.30;;;14.47;;
71753;SDS011;59593;51.716;7.016;2022-10-31T07:45:57;23.05;;;16.00;;
71753;SDS011;59593;51.716;7.016;2022-10-31T07:48:23;23.08;;;15.15;;
71753;SDS011;59593;51.716;7.016;2022-10-31T07:50:48;24.60;;;15.67;;
71753;SDS011;59593;51.716;7.016;2022-10-31T07:53:14;26.73;;;15.93;;
71753;SDS011;59593;51.716;7.016;2022-10-31T07:55:40;34.55;;;17.83;;
71753;SDS011;59593;51.716;7.016;2022-10-31T07:58:08;28.45;;;17.70;;
71753;SDS011;59593;51.716;7.016;2022-10-31T08:00:36;27.03;;;16.80;;
71753;SDS011;59593;51.716;7.016;2022-10-31T08:05:30;25.57;;;18.07;;
71753;SDS011;59593;51.716;7.016;2022-10-31T08:07:56;30.52;;;18.58;;
71753;SDS011;59593;51.716;7.016;2022-10-31T08:10:22;24.20;;;17.52;;
71753;SDS011;59593;51.716;7.016;2022-10-31T08:12:59;23.10;;;17.27;;
71753;SDS011;59593;51.716;7.016;2022-10-31T08:15:26;26.48;;;18.77;;
71753;SDS011;59593;51.716;7.016;2022-10-31T08:17:52;28.08;;;18.48;;
71753;SDS011;59593;51.716;7.016;2022-10-31T08:20:18;32.03;;;19.67;;
71753;SDS011;59593;51.716;7.016;2022-10-31T08:23:00;30.83;;;19.92;;
71753;SDS011;59593;51.716;7.016;2022-10-31T08:25:28;30.73;;;19.95;;
71753;SDS011;59593;51.716;7.016;2022-10-31T08:27:55;28.60;;;19.58;;
71753;SDS011;59593;51.716;7.016;2022-10-31T08:30:22;35.35;;;19.58;;
71753;SDS011;59593;51.716;7.016;2022-10-31T08:33:00;26.50;;;18.13;;
71753;SDS011;59593;51.716;7.016;2022-10-31T08:35:31;22.20;;;16.50;;
71753;SDS011;59593;51.716;7.016;2022-10-31T08:37:57;32.40;;;20.33;;
71753;SDS011;59593;51.716;7.016;2022-10-31T08:40:23;24.70;;;18.10;;
71753;SDS011;59593;51.716;7.016;2022-10-31T08:43:23;26.17;;;18.25;;
71753;SDS011;59593;51.716;7.016;2022-10-31T08:45:43;27.60;;;17.92;;
71753;SDS011;59593;51.716;7.016;2022-10-31T08:48:10;25.58;;;17.65;;
71753;SDS011;59593;51.716;7.016;2022-10-31T08:50:37;26.95;;;17.70;;
71753;SDS011;59593;51.716;7.016;2022-10-31T08:53:16;29.13;;;17.00;;
71753;SDS011;59593;51.716;7.016;2022-10-31T08:55:44;25.35;;;17.52;;
71753;SDS011;59593;51.716;7.016;2022-10-31T08:58:15;26.23;;;17.15;;
71753;SDS011;59593;51.716;7.016;2022-10-31T09:00:42;22.48;;;16.38;;
71753;SDS011;59593;51.716;7.016;2022-10-31T09:03:15;24.50;;;16.67;;
71753;SDS011;59593;51.716;7.016;2022-10-31T09:05:49;28.15;;;15.90;;
71753;SDS011;59593;51.716;7.016;2022-10-31T09:08:15;26.70;;;16.48;;
71753;SDS011;59593;51.716;7.016;2022-10-31T09:10:42;22.88;;;16.67;;
71753;SDS011;59593;51.716;7.016;2022-10-31T09:13:15;26.50;;;16.95;;
71753;SDS011;59593;51.716;7.016;2022-10-31T09:15:43;28.13;;;16.77;;
71753;SDS011;59593;51.716;7.016;2022-10-31T09:18:11;25.45;;;17.60;;
71753;SDS011;59593;51.716;7.016;2022-10-31T09:20:38;24.73;;;17.23;;
71753;SDS011;59593;51.716;7.016;2022-10-31T09:23:18;33.67;;;18.75;;
71753;SDS011;59593;51.716;7.016;2022-10-31T09:25:45;28.95;;;17.58;;
71753;SDS011;59593;51.716;7.016;2022-10-31T09:28:12;24.95;;;16.98;;
71753;SDS011;59593;51.716;7.016;2022-10-31T09:30:41;26.35;;;17.00;;
71753;SDS011;59593;51.716;7.016;2022-10-31T09:33:10;29.48;;;17.65;;
71753;SDS011;59593;51.716;7.016;2022-10-31T09:35:37;26.55;;;16.48;;
71753;SDS011;59593;51.716;7.016;2022-10-31T09:38:03;25.40;;;17.15;;
71753;SDS011;59593;51.716;7.016;2022-10-31T09:43:15;24.75;;;17.40;;
71753;SDS011;59593;51.716;7.016;2022-10-31T09:57:25;28.40;;;17.90;;
71753;SDS011;59593;51.716;7.016;2022-10-31T09:59:54;30.42;;;17.70;;
71753;SDS011;59593;51.716;7.016;2022-10-31T10:05:02;27.25;;;17.83;;
71753;SDS011;59593;51.716;7.016;2022-10-31T10:18:46;29.00;;;17.83;;
71753;SDS011;59593;51.716;7.016;2022-10-31T10:24:28;32.17;;;20.50;;
71753;SDS011;59593;51.716;7.016;2022-10-31T10:30:02;32.60;;;19.98;;
71753;SDS011;59593;51.716;7.016;2022-10-31T10:32:42;30.35;;;18.95;;
71753;SDS011;59593;51.716;7.016;2022-10-31T10:35:19;34.53;;;20.48;;
71753;SDS011;59593;51.716;7.016;2022-10-31T10:37:54;30.38;;;19.17;;
71753;SDS011;59593;51.716;7.016;2022-10-31T10:40:29;34.72;;;20.40;;
71753;SDS011;59593;51.716;7.016;2022-10-31T10:48:43;32.05;;;18.17;;
71753;SDS011;59593;51.716;7.016;2022-10-31T10:51:37;27.40;;;17.67;;
71753;SDS011;59593;51.716;7.016;2022-10-31T10:54:42;25.60;;;17.27;;
71753;SDS011;59593;51.716;7.016;2022-10-31T10:57:50;32.90;;;18.15;;
71753;SDS011;59593;51.716;7.016;2022-10-31T11:00:38;30.40;;;18.02;;
71753;SDS011;59593;51.716;7.016;2022-10-31T11:03:05;33.55;;;18.58;;
71753;SDS011;59593;51.716;7.016;2022-10-31T11:05:39;27.92;;;18.73;;
71753;SDS011;59593;51.716;7.016;2022-10-31T11:08:05;31.95;;;18.90;;
71753;SDS011;59593;51.716;7.016;2022-10-31T11:10:31;34.38;;;19.55;;
71753;SDS011;59593;51.716;7.016;2022-10-31T11:16:03;36.53;;;20.58;;
71753;SDS011;59593;51.716;7.016;2022-10-31T11:19:06;31.95;;;20.17;;
71753;SDS011;59593;51.716;7.016;2022-10-31T11:22:08;34.78;;;20.38;;
71753;SDS011;59593;51.716;7.016;2022-10-31T11:24:41;33.65;;;21.20;;
71753;SDS011;59593;51.716;7.016;2022-10-31T11:27:19;35.58;;;20.65;;
71753;SDS011;59593;51.716;7.016;2022-10-31T11:29:46;35.13;;;20.42;;
71753;SDS011;59593;51.716;7.016;2022-10-31T11:32:17;39.63;;;19.45;;
71753;SDS011;59593;51.716;7.016;2022-10-31T11:34:59;32.90;;;19.15;;
71753;SDS011;59593;51.716;7.016;2022-10-31T11:37:28;29.55;;;19.38;;
71753;SDS011;59593;51.716;7.016;2022-10-31T11:40:02;33.65;;;20.17;;
71753;SDS011;59593;51.716;7.016;2022-10-31T11:42:37;29.83;;;19.67;;
71753;SDS011;59593;51.716;7.016;2022-10-31T11:45:16;36.67;;;20.13;;
71753;SDS011;59593;51.716;7.016;2022-10-31T11:47:49;32.28;;;19.73;;
71753;SDS011;59593;51.716;7.016;2022-10-31T11:53:16;37.83;;;20.52;;
71753;SDS011;59593;51.716;7.016;2022-10-31T11:55:45;32.00;;;19.73;;
71753;SDS011;59593;51.716;7.016;2022-10-31T11:58:31;32.78;;;19.55;;
71753;SDS011;59593;51.716;7.016;2022-10-31T12:00:57;35.42;;;20.15;;
71753;SDS011;59593;51.716;7.016;2022-10-31T12:05:56;33.22;;;20.17;;
71753;SDS011;59593;51.716;7.016;2022-10-31T12:08:37;29.50;;;19.60;;
71753;SDS011;59593;51.716;7.016;2022-10-31T12:16:48;32.90;;;19.55;;
71753;SDS011;59593;51.716;7.016;2022-10-31T12:24:54;33.55;;;19.77;;
71753;SDS011;59593;51.716;7.016;2022-10-31T12:32:43;35.30;;;19.45;;
71753;SDS011;59593;51.716;7.016;2022-10-31T12:35:29;37.42;;;20.58;;
71753;SDS011;59593;51.716;7.016;2022-10-31T12:38:30;32.42;;;19.48;;
71753;SDS011;59593;51.716;7.016;2022-10-31T12:41:11;32.80;;;19.83;;
71753;SDS011;59593;51.716;7.016;2022-10-31T12:54:36;32.67;;;20.90;;
71753;SDS011;59593;51.716;7.016;2022-10-31T12:59:44;33.33;;;19.73;;
71753;SDS011;59593;51.716;7.016;2022-10-31T13:07:24;36.15;;;21.05;;
71753;SDS011;59593;51.716;7.016;2022-10-31T13:13:32;31.05;;;20.10;;
71753;SDS011;59593;51.716;7.016;2022-10-31T13:22:08;37.00;;;20.33;;
71753;SDS011;59593;51.716;7.016;2022-10-31T13:24:59;29.77;;;18.23;;
71753;SDS011;59593;51.716;7.016;2022-10-31T13:27:38;30.35;;;18.25;;
71753;SDS011;59593;51.716;7.016;2022-10-31T13:30:13;32.72;;;19.60;;
71753;SDS011;59593;51.716;7.016;2022-10-31T13:32:44;30.35;;;18.15;;
71753;SDS011;59593;51.716;7.016;2022-10-31T13:35:25;33.72;;;18.80;;
71753;SDS011;59593;51.716;7.016;2022-10-31T13:38:05;31.73;;;19.27;;
71753;SDS011;59593;51.716;7.016;2022-10-31T13:41:00;34.88;;;19.23;;
71753;SDS011;59593;51.716;7.016;2022-10-31T13:49:00;32.10;;;19.27;;
71753;SDS011;59593;51.716;7.016;2022-10-31T13:51:30;36.55;;;20.83;;
71753;SDS011;59593;51.716;7.016;2022-10-31T13:54:06;37.50;;;20.00;;
71753;SDS011;59593;51.716;7.016;2022-10-31T13:56:47;37.38;;;20.55;;
71753;SDS011;59593;51.716;7.016;2022-10-31T13:59:16;34.90;;;20.83;;
71753;SDS011;59593;51.716;7.016;2022-10-31T14:01:48;34.83;;;20.00;;
71753;SDS011;59593;51.716;7.016;2022-10-31T14:04:23;42.60;;;22.65;;
71753;SDS011;59593;51.716;7.016;2022-10-31T14:07:07;42.10;;;22.23;;
71753;SDS011;59593;51.716;7.016;2022-10-31T14:09:36;35.38;;;21.30;;
71753;SDS011;59593;51.716;7.016;2022-10-31T14:12:07;36.25;;;20.63;;
71753;SDS011;59593;51.716;7.016;2022-10-31T14:14:49;31.33;;;20.25;;
71753;SDS011;59593;51.716;7.016;2022-10-31T14:17:23;36.67;;;22.02;;
71753;SDS011;59593;51.716;7.016;2022-10-31T14:22:35;33.70;;;20.83;;
71753;SDS011;59593;51.716;7.016;2022-10-31T14:25:24;35.15;;;20.27;;
71753;SDS011;59593;51.716;7.016;2022-10-31T14:27:50;37.30;;;21.25;;
71753;SDS011;59593;51.716;7.016;2022-10-31T14:30:18;38.50;;;20.95;;
71753;SDS011;59593;51.716;7.016;2022-10-31T14:32:51;43.05;;;21.52;;
71753;SDS011;59593;51.716;7.016;2022-10-31T14:35:20;34.38;;;19.50;;
71753;SDS011;59593;51.716;7.016;2022-10-31T14:38:11;37.22;;;20.85;;
71753;SDS011;59593;51.716;7.016;2022-10-31T14:41:21;40.00;;;21.40;;
71753;SDS011;59593;51.716;7.016;2022-10-31T14:44:16;38.17;;;20.75;;
71753;SDS011;59593;51.716;7.016;2022-10-31T14:47:05;33.30;;;21.00;;
71753;SDS011;59593;51.716;7.016;2022-10-31T14:50:10;38.67;;;21.27;;
71753;SDS011;59593;51.716;7.016;2022-10-31T14:52:57;36.35;;;20.48;;
71753;SDS011;59593;51.716;7.016;2022-10-31T14:55:27;32.65;;;20.20;;
71753;SDS011;59593;51.716;7.016;2022-10-31T14:57:57;36.47;;;20.85;;
71753;SDS011;59593;51.716;7.016;2022-10-31T15:00:27;37.63;;;19.95;;
71753;SDS011;59593;51.716;7.016;2022-10-31T15:05:47;34.33;;;20.55;;
71753;SDS011;59593;51.716;7.016;2022-10-31T15:11:15;32.30;;;19.27;;
71753;SDS011;59593;51.716;7.016;2022-10-31T15:13:46;41.22;;;22.48;;
71753;SDS011;59593;51.716;7.016;2022-10-31T15:16:19;35.30;;;20.17;;
71753;SDS011;59593;51.716;7.016;2022-10-31T15:19:03;37.20;;;21.88;;
71753;SDS011;59593;51.716;7.016;2022-10-31T15:21:30;34.05;;;19.10;;
71753;SDS011;59593;51.716;7.016;2022-10-31T15:23:58;36.53;;;20.65;;
71753;SDS011;59593;51.716;7.016;2022-10-31T15:26:27;35.97;;;18.70;;
71753;SDS011;59593;51.716;7.016;2022-10-31T15:28:58;34.50;;;18.85;;
71753;SDS011;59593;51.716;7.016;2022-10-31T15:31:26;33.45;;;18.38;;
71753;SDS011;59593;51.716;7.016;2022-10-31T15:33:52;33.28;;;18.85;;
71753;SDS011;59593;51.716;7.016;2022-10-31T15:36:21;29.00;;;17.67;;
71753;SDS011;59593;51.716;7.016;2022-10-31T15:38:48;31.98;;;18.25;;
71753;SDS011;59593;51.716;7.016;2022-10-31T15:41:26;30.52;;;18.13;;
71753;SDS011;59593;51.716;7.016;2022-10-31T15:44:21;27.33;;;18.02;;
71753;SDS011;59593;51.716;7.016;2022-10-31T15:47:03;35.78;;;18.65;;
71753;SDS011;59593;51.716;7.016;2022-10-31T15:49:37;32.13;;;18.08;;
71753;SDS011;59593;51.716;7.016;2022-10-31T15:52:08;33.25;;;18.92;;
71753;SDS011;59593;51.716;7.016;2022-10-31T15:54:42;33.88;;;18.60;;
71753;SDS011;59593;51.716;7.016;2022-10-31T15:57:12;28.42;;;18.02;;
71753;SDS011;59593;51.716;7.016;2022-10-31T15:59:38;30.33;;;18.17;;
71753;SDS011;59593;51.716;7.016;2022-10-31T16:02:09;30.13;;;18.55;;
71753;SDS011;59593;51.716;7.016;2022-10-31T16:04:36;34.75;;;19.75;;
71753;SDS011;59593;51.716;7.016;2022-10-31T16:07:03;36.78;;;18.95;;
71753;SDS011;59593;51.716;7.016;2022-10-31T16:12:18;37.22;;;20.40;;
71753;SDS011;59593;51.716;7.016;2022-10-31T16:14:46;37.05;;;19.58;;
71753;SDS011;59593;51.716;7.016;2022-10-31T16:17:13;38.10;;;20.90;;
71753;SDS011;59593;51.716;7.016;2022-10-31T16:22:35;36.22;;;20.25;;
71753;SDS011;59593;51.716;7.016;2022-10-31T16:27:39;39.55;;;20.80;;
71753;SDS011;59593;51.716;7.016;2022-10-31T16:32:53;36.80;;;20.60;;
71753;SDS011;59593;51.716;7.016;2022-10-31T16:35:34;37.60;;;20.63;;
71753;SDS011;59593;51.716;7.016;2022-10-31T16:38:00;34.53;;;20.25;;
71753;SDS011;59593;51.716;7.016;2022-10-31T16:40:26;38.75;;;21.13;;
71753;SDS011;59593;51.716;7.016;2022-10-31T16:42:52;41.05;;;21.58;;
71753;SDS011;59593;51.716;7.016;2022-10-31T16:45:19;34.30;;;20.30;;
71753;SDS011;59593;51.716;7.016;2022-10-31T16:47:47;38.55;;;21.33;;
71753;SDS011;59593;51.716;7.016;2022-10-31T16:50:18;37.80;;;21.63;;
71753;SDS011;59593;51.716;7.016;2022-10-31T16:52:51;40.08;;;22.00;;
71753;SDS011;59593;51.716;7.016;2022-10-31T16:55:18;35.53;;;21.67;;
71753;SDS011;59593;51.716;7.016;2022-10-31T16:57:47;38.38;;;23.13;;
71753;SDS011;59593;51.716;7.016;2022-10-31T17:00:16;39.72;;;21.55;;
71753;SDS011;59593;51.716;7.016;2022-10-31T17:02:46;43.05;;;22.38;;
71753;SDS011;59593;51.716;7.016;2022-10-31T17:05:15;35.25;;;22.67;;
71753;SDS011;59593;51.716;7.016;2022-10-31T17:07:43;39.22;;;23.30;;
71753;SDS011;59593;51.716;7.016;2022-10-31T17:10:09;36.65;;;22.88;;
71753;SDS011;59593;51.716;7.016;2022-10-31T17:12:37;39.75;;;23.90;;
71753;SDS011;59593;51.716;7.016;2022-10-31T17:15:06;37.95;;;23.40;;
71753;SDS011;59593;51.716;7.016;2022-10-31T17:17:39;37.10;;;22.67;;